sensor_id;sensor_type;location;lat;lon;timestamp;P1;durP1;ratioP1;P2;durP2;ratioP2
27983;SDS011;15317;50.360;8.726;2024-03-23T00:52:07;29.53;;;23.63;;
27983;SDS011;15317;50.360;8.726;2024-03-23T00:57:10;29.47;;;23.80;;
27983;SDS011;15317;50.360;8.726;2024-03-23T01:02:12;29.50;;;23.97;;
27983;SDS011;15317;50.360;8.726;2024-03-23T01:07:16;25.60;;;22.37;;
27983;SDS011;15317;50.360;8.726;2024-03-23T01:12:18;25.07;;;22.37;;
27983;SDS011;15317;50.360;8.726;2024-03-23T01:17:20;25.23;;;22.07;;
27983;SDS011;15317;50.360;8.726;2024-03-23T01:22:24;25.40;;;22.63;;
27983;SDS011;15317;50.360;8.726;2024-03-23T01:27:26;28.23;;;23.97;;
27983;SDS011;15317;50.360;8.726;2024-03-23T01:32:28;30.87;;;25.10;;
27983;SDS011;15317;50.360;8.726;2024-03-23T01:37:32;29.43;;;24.93;;
27983;SDS011;15317;50.360;8.726;2024-03-23T01:42:34;29.60;;;23.23;;
27983;SDS011;15317;50.360;8.726;2024-03-23T01:47:36;29.20;;;24.63;;
27983;SDS011;15317;50.360;8.726;2024-03-23T01:52:39;26.77;;;23.33;;
27983;SDS011;15317;50.360;8.726;2024-03-23T01:57:42;26.17;;;22.03;;
27983;SDS011;15317;50.360;8.726;2024-03-23T02:02:44;30.90;;;24.53;;
27983;SDS011;15317;50.360;8.726;2024-03-23T02:07:48;36.30;;;28.30;;
27983;SDS011;15317;50.360;8.726;2024-03-23T02:12:52;32.80;;;26.80;;
27983;SDS011;15317;50.360;8.726;2024-03-23T02:17:54;33.90;;;26.93;;
27983;SDS011;15317;50.360;8.726;2024-03-23T02:22:58;30.63;;;25.70;;
27983;SDS011;15317;50.360;8.726;2024-03-23T02:28:00;33.70;;;26.57;;
27983;SDS011;15317;50.360;8.726;2024-03-23T02:33:02;32.13;;;26.57;;
27983;SDS011;15317;50.360;8.726;2024-03-23T02:38:06;30.00;;;25.13;;
27983;SDS011;15317;50.360;8.726;2024-03-23T02:43:08;33.93;;;28.30;;
27983;SDS011;15317;50.360;8.726;2024-03-23T02:48:10;37.07;;;28.30;;
27983;SDS011;15317;50.360;8.726;2024-03-23T02:53:14;34.23;;;27.60;;
27983;SDS011;15317;50.360;8.726;2024-03-23T02:58:16;27.37;;;22.77;;
27983;SDS011;15317;50.360;8.726;2024-03-23T03:03:18;29.80;;;25.17;;
27983;SDS011;15317;50.360;8.726;2024-03-23T03:08:21;30.40;;;25.90;;
27983;SDS011;15317;50.360;8.726;2024-03-23T03:13:24;33.83;;;27.60;;
27983;SDS011;15317;50.360;8.726;2024-03-23T03:18:26;35.63;;;28.53;;
27983;SDS011;15317;50.360;8.726;2024-03-23T03:23:29;36.00;;;28.57;;
27983;SDS011;15317;50.360;8.726;2024-03-23T03:28:32;33.30;;;28.10;;
27983;SDS011;15317;50.360;8.726;2024-03-23T03:33:34;32.00;;;27.90;;
27983;SDS011;15317;50.360;8.726;2024-03-23T03:38:37;31.70;;;26.50;;
27983;SDS011;15317;50.360;8.726;2024-03-23T03:43:40;31.97;;;24.57;;
27983;SDS011;15317;50.360;8.726;2024-03-23T03:48:42;29.63;;;24.77;;
27983;SDS011;15317;50.360;8.726;2024-03-23T03:53:47;31.53;;;25.60;;
27983;SDS011;15317;50.360;8.726;2024-03-23T03:58:49;31.30;;;25.87;;
27983;SDS011;15317;50.360;8.726;2024-03-23T04:03:51;40.93;;;30.40;;
27983;SDS011;15317;50.360;8.726;2024-03-23T04:08:55;43.13;;;32.97;;
27983;SDS011;15317;50.360;8.726;2024-03-23T04:13:57;40.13;;;30.53;;
27983;SDS011;15317;50.360;8.726;2024-03-23T04:18:59;37.63;;;29.43;;
27983;SDS011;15317;50.360;8.726;2024-03-23T04:24:03;34.40;;;26.20;;
27983;SDS011;15317;50.360;8.726;2024-03-23T04:29:05;31.83;;;24.43;;
27983;SDS011;15317;50.360;8.726;2024-03-23T04:34:08;25.80;;;19.37;;
27983;SDS011;15317;50.360;8.726;2024-03-23T04:39:11;14.00;;;11.37;;
27983;SDS011;15317;50.360;8.726;2024-03-23T04:44:14;6.03;;;5.23;;
27983;SDS011;15317;50.360;8.726;2024-03-23T04:49:16;2.83;;;2.63;;
27983;SDS011;15317;50.360;8.726;2024-03-23T04:54:19;3.30;;;1.93;;
27983;SDS011;15317;50.360;8.726;2024-03-23T04:59:21;1.20;;;1.00;;
27983;SDS011;15317;50.360;8.726;2024-03-23T05:04:23;1.83;;;1.60;;
27983;SDS011;15317;50.360;8.726;2024-03-23T05:09:27;1.97;;;1.70;;
27983;SDS011;15317;50.360;8.726;2024-03-23T05:14:30;1.87;;;1.67;;
27983;SDS011;15317;50.360;8.726;2024-03-23T05:19:33;4.10;;;2.10;;
27983;SDS011;15317;50.360;8.726;2024-03-23T05:24:37;1.70;;;1.60;;
27983;SDS011;15317;50.360;8.726;2024-03-23T05:29:39;1.80;;;1.50;;
27983;SDS011;15317;50.360;8.726;2024-03-23T05:34:41;1.33;;;1.23;;
27983;SDS011;15317;50.360;8.726;2024-03-23T05:39:44;1.40;;;1.20;;
27983;SDS011;15317;50.360;8.726;2024-03-23T05:44:49;1.40;;;0.90;;
27983;SDS011;15317;50.360;8.726;2024-03-23T05:49:51;0.40;;;0.40;;
27983;SDS011;15317;50.360;8.726;2024-03-23T05:54:54;1.60;;;0.50;;
27983;SDS011;15317;50.360;8.726;2024-03-23T05:59:57;0.40;;;0.37;;
27983;SDS011;15317;50.360;8.726;2024-03-23T06:04:59;1.77;;;0.40;;
27983;SDS011;15317;50.360;8.726;2024-03-23T06:10:04;0.30;;;0.30;;
27983;SDS011;15317;50.360;8.726;2024-03-23T06:15:07;0.50;;;0.37;;
27983;SDS011;15317;50.360;8.726;2024-03-23T06:20:11;1.13;;;0.40;;
27983;SDS011;15317;50.360;8.726;2024-03-23T06:25:15;0.40;;;0.40;;
27983;SDS011;15317;50.360;8.726;2024-03-23T06:30:18;0.40;;;0.40;;
27983;SDS011;15317;50.360;8.726;2024-03-23T06:35:20;1.17;;;0.60;;
27983;SDS011;15317;50.360;8.726;2024-03-23T06:40:23;1.27;;;0.50;;
27983;SDS011;15317;50.360;8.726;2024-03-23T06:45:26;1.40;;;0.60;;
27983;SDS011;15317;50.360;8.726;2024-03-23T06:50:31;1.50;;;0.80;;
27983;SDS011;15317;50.360;8.726;2024-03-23T06:55:34;2.03;;;1.07;;
27983;SDS011;15317;50.360;8.726;2024-03-23T07:00:37;3.93;;;1.10;;
27983;SDS011;15317;50.360;8.726;2024-03-23T07:05:41;2.50;;;1.30;;
27983;SDS011;15317;50.360;8.726;2024-03-23T07:10:45;4.20;;;1.30;;
27983;SDS011;15317;50.360;8.726;2024-03-23T07:15:51;1.83;;;1.10;;
27983;SDS011;15317;50.360;8.726;2024-03-23T07:20:53;1.97;;;1.47;;
27983;SDS011;15317;50.360;8.726;2024-03-23T07:25:58;2.67;;;1.10;;
27983;SDS011;15317;50.360;8.726;2024-03-23T07:31:01;2.03;;;1.40;;
27983;SDS011;15317;50.360;8.726;2024-03-23T07:36:04;4.30;;;1.73;;
27983;SDS011;15317;50.360;8.726;2024-03-23T07:41:09;4.67;;;2.43;;
27983;SDS011;15317;50.360;8.726;2024-03-23T07:46:12;2.87;;;1.90;;
27983;SDS011;15317;50.360;8.726;2024-03-23T07:51:16;4.10;;;2.03;;
27983;SDS011;15317;50.360;8.726;2024-03-23T07:56:20;4.97;;;2.50;;
27983;SDS011;15317;50.360;8.726;2024-03-23T08:01:24;4.57;;;2.70;;
27983;SDS011;15317;50.360;8.726;2024-03-23T08:06:26;6.23;;;3.43;;
27983;SDS011;15317;50.360;8.726;2024-03-23T08:11:30;6.37;;;4.23;;
27983;SDS011;15317;50.360;8.726;2024-03-23T08:16:33;7.20;;;4.70;;
27983;SDS011;15317;50.360;8.726;2024-03-23T08:21:35;5.33;;;4.13;;
27983;SDS011;15317;50.360;8.726;2024-03-23T08:26:39;7.17;;;5.00;;
27983;SDS011;15317;50.360;8.726;2024-03-23T08:31:41;7.73;;;5.67;;
27983;SDS011;15317;50.360;8.726;2024-03-23T08:36:43;8.10;;;6.93;;
27983;SDS011;15317;50.360;8.726;2024-03-23T08:41:47;10.10;;;6.70;;
27983;SDS011;15317;50.360;8.726;2024-03-23T08:46:49;10.27;;;6.80;;
27983;SDS011;15317;50.360;8.726;2024-03-23T08:51:51;10.03;;;5.73;;
27983;SDS011;15317;50.360;8.726;2024-03-23T08:56:56;8.10;;;5.43;;
27983;SDS011;15317;50.360;8.726;2024-03-23T09:01:58;9.83;;;5.33;;
27983;SDS011;15317;50.360;8.726;2024-03-23T09:07:00;10.80;;;5.70;;
27983;SDS011;15317;50.360;8.726;2024-03-23T09:12:04;8.13;;;4.90;;
27983;SDS011;15317;50.360;8.726;2024-03-23T09:17:07;7.80;;;4.47;;
27983;SDS011;15317;50.360;8.726;2024-03-23T09:22:10;9.50;;;4.60;;
27983;SDS011;15317;50.360;8.726;2024-03-23T09:27:14;8.53;;;4.40;;
27983;SDS011;15317;50.360;8.726;2024-03-23T09:32:16;9.23;;;5.10;;
27983;SDS011;15317;50.360;8.726;2024-03-23T09:37:18;9.87;;;6.63;;
27983;SDS011;15317;50.360;8.726;2024-03-23T09:42:22;9.03;;;5.13;;
27983;SDS011;15317;50.360;8.726;2024-03-23T09:47:25;11.47;;;3.97;;
27983;SDS011;15317;50.360;8.726;2024-03-23T09:52:27;8.90;;;3.60;;
27983;SDS011;15317;50.360;8.726;2024-03-23T09:57:31;9.47;;;4.43;;
27983;SDS011;15317;50.360;8.726;2024-03-23T10:02:33;7.80;;;3.60;;
27983;SDS011;15317;50.360;8.726;2024-03-23T10:07:36;11.33;;;5.20;;
27983;SDS011;15317;50.360;8.726;2024-03-23T10:12:40;10.90;;;4.93;;
27983;SDS011;15317;50.360;8.726;2024-03-23T10:17:46;18.63;;;9.00;;
27983;SDS011;15317;50.360;8.726;2024-03-23T10:22:49;6.20;;;3.57;;
27983;SDS011;15317;50.360;8.726;2024-03-23T10:27:59;3.80;;;2.20;;
27983;SDS011;15317;50.360;8.726;2024-03-23T10:33:08;4.03;;;1.70;;
27983;SDS011;15317;50.360;8.726;2024-03-23T10:38:11;6.70;;;2.17;;
27983;SDS011;15317;50.360;8.726;2024-03-23T10:43:17;5.40;;;2.00;;
27983;SDS011;15317;50.360;8.726;2024-03-23T10:48:20;4.90;;;1.80;;
27983;SDS011;15317;50.360;8.726;2024-03-23T10:53:22;7.63;;;2.20;;
27983;SDS011;15317;50.360;8.726;2024-03-23T10:58:30;4.47;;;1.80;;
27983;SDS011;15317;50.360;8.726;2024-03-23T11:03:34;3.67;;;1.67;;
27983;SDS011;15317;50.360;8.726;2024-03-23T11:08:38;7.07;;;1.87;;
27983;SDS011;15317;50.360;8.726;2024-03-23T11:13:44;6.57;;;2.20;;
27983;SDS011;15317;50.360;8.726;2024-03-23T11:18:46;6.23;;;2.23;;
27983;SDS011;15317;50.360;8.726;2024-03-23T11:23:48;6.70;;;2.00;;
27983;SDS011;15317;50.360;8.726;2024-03-23T11:28:52;7.17;;;2.23;;
27983;SDS011;15317;50.360;8.726;2024-03-23T11:34:10;6.10;;;1.67;;
27983;SDS011;15317;50.360;8.726;2024-03-23T11:39:13;4.37;;;2.10;;
27983;SDS011;15317;50.360;8.726;2024-03-23T11:44:18;5.33;;;1.97;;
27983;SDS011;15317;50.360;8.726;2024-03-23T11:49:23;4.60;;;2.10;;
27983;SDS011;15317;50.360;8.726;2024-03-23T11:54:26;4.93;;;2.50;;
27983;SDS011;15317;50.360;8.726;2024-03-23T11:59:33;5.97;;;2.50;;
27983;SDS011;15317;50.360;8.726;2024-03-23T12:04:36;4.57;;;2.20;;
27983;SDS011;15317;50.360;8.726;2024-03-23T12:09:38;4.90;;;2.10;;
27983;SDS011;15317;50.360;8.726;2024-03-23T12:14:42;4.50;;;2.13;;
27983;SDS011;15317;50.360;8.726;2024-03-23T12:19:45;4.70;;;2.23;;
27983;SDS011;15317;50.360;8.726;2024-03-23T12:24:47;5.20;;;2.20;;
27983;SDS011;15317;50.360;8.726;2024-03-23T12:29:51;4.83;;;2.40;;
27983;SDS011;15317;50.360;8.726;2024-03-23T12:34:53;4.30;;;2.50;;
27983;SDS011;15317;50.360;8.726;2024-03-23T12:39:55;4.77;;;2.30;;
27983;SDS011;15317;50.360;8.726;2024-03-23T12:44:59;6.07;;;3.33;;
27983;SDS011;15317;50.360;8.726;2024-03-23T12:50:01;4.80;;;2.20;;
27983;SDS011;15317;50.360;8.726;2024-03-23T12:55:04;5.63;;;1.67;;
27983;SDS011;15317;50.360;8.726;2024-03-23T13:00:08;2.67;;;1.30;;
27983;SDS011;15317;50.360;8.726;2024-03-23T13:05:12;3.50;;;1.43;;
27983;SDS011;15317;50.360;8.726;2024-03-23T13:10:14;3.47;;;1.30;;
27983;SDS011;15317;50.360;8.726;2024-03-23T13:15:18;2.93;;;1.33;;
27983;SDS011;15317;50.360;8.726;2024-03-23T13:20:21;3.33;;;1.73;;
27983;SDS011;15317;50.360;8.726;2024-03-23T13:25:23;1.67;;;1.40;;
27983;SDS011;15317;50.360;8.726;2024-03-23T13:30:27;4.00;;;1.70;;
27983;SDS011;15317;50.360;8.726;2024-03-23T13:35:29;3.03;;;1.57;;
27983;SDS011;15317;50.360;8.726;2024-03-23T13:40:31;2.03;;;1.70;;
27983;SDS011;15317;50.360;8.726;2024-03-23T13:45:35;1.60;;;1.30;;
27983;SDS011;15317;50.360;8.726;2024-03-23T13:50:37;2.60;;;1.30;;
27983;SDS011;15317;50.360;8.726;2024-03-23T13:55:45;1.73;;;1.30;;
27983;SDS011;15317;50.360;8.726;2024-03-23T14:00:49;1.90;;;1.47;;
27983;SDS011;15317;50.360;8.726;2024-03-23T14:05:51;1.47;;;1.20;;
27983;SDS011;15317;50.360;8.726;2024-03-23T14:10:54;1.50;;;0.90;;
27983;SDS011;15317;50.360;8.726;2024-03-23T14:15:59;1.87;;;1.07;;
27983;SDS011;15317;50.360;8.726;2024-03-23T14:21:01;1.50;;;1.00;;
27983;SDS011;15317;50.360;8.726;2024-03-23T14:26:04;1.30;;;0.90;;
27983;SDS011;15317;50.360;8.726;2024-03-23T14:31:07;2.20;;;1.10;;
27983;SDS011;15317;50.360;8.726;2024-03-23T14:36:11;3.90;;;0.90;;
27983;SDS011;15317;50.360;8.726;2024-03-23T14:41:13;1.37;;;0.87;;
27983;SDS011;15317;50.360;8.726;2024-03-23T14:46:16;2.73;;;1.10;;
27983;SDS011;15317;50.360;8.726;2024-03-23T14:51:19;1.37;;;0.83;;
27983;SDS011;15317;50.360;8.726;2024-03-23T14:56:22;1.13;;;1.03;;
27983;SDS011;15317;50.360;8.726;2024-03-23T15:01:26;1.53;;;1.10;;
27983;SDS011;15317;50.360;8.726;2024-03-23T15:06:28;1.47;;;0.90;;
27983;SDS011;15317;50.360;8.726;2024-03-23T15:11:30;0.80;;;0.80;;
27983;SDS011;15317;50.360;8.726;2024-03-23T15:16:34;1.37;;;0.80;;
27983;SDS011;15317;50.360;8.726;2024-03-23T15:21:37;2.07;;;0.90;;
27983;SDS011;15317;50.360;8.726;2024-03-23T15:26:39;1.13;;;0.77;;
27983;SDS011;15317;50.360;8.726;2024-03-23T15:31:42;1.00;;;0.80;;
27983;SDS011;15317;50.360;8.726;2024-03-23T15:36:46;2.20;;;0.77;;
27983;SDS011;15317;50.360;8.726;2024-03-23T15:41:48;1.57;;;1.03;;
27983;SDS011;15317;50.360;8.726;2024-03-23T15:46:52;2.13;;;1.30;;
27983;SDS011;15317;50.360;8.726;2024-03-23T15:51:54;2.37;;;1.40;;
27983;SDS011;15317;50.360;8.726;2024-03-23T15:56:56;2.53;;;1.57;;
27983;SDS011;15317;50.360;8.726;2024-03-23T16:02:00;3.33;;;1.40;;
27983;SDS011;15317;50.360;8.726;2024-03-23T16:07:03;3.23;;;1.33;;
27983;SDS011;15317;50.360;8.726;2024-03-23T16:12:06;2.23;;;1.63;;
27983;SDS011;15317;50.360;8.726;2024-03-23T16:17:09;1.30;;;1.20;;
27983;SDS011;15317;50.360;8.726;2024-03-23T16:22:11;1.57;;;1.00;;
27983;SDS011;15317;50.360;8.726;2024-03-23T16:27:13;6.10;;;5.50;;
27983;SDS011;15317;50.360;8.726;2024-03-23T16:32:17;2.93;;;1.00;;
27983;SDS011;15317;50.360;8.726;2024-03-23T16:37:19;1.77;;;1.20;;
27983;SDS011;15317;50.360;8.726;2024-03-23T16:42:21;2.70;;;1.77;;
27983;SDS011;15317;50.360;8.726;2024-03-23T16:47:25;1.87;;;1.13;;
27983;SDS011;15317;50.360;8.726;2024-03-23T16:52:28;2.60;;;1.20;;
27983;SDS011;15317;50.360;8.726;2024-03-23T16:57:30;2.43;;;1.40;;
27983;SDS011;15317;50.360;8.726;2024-03-23T17:02:34;1.17;;;0.90;;
27983;SDS011;15317;50.360;8.726;2024-03-23T17:07:38;1.63;;;0.77;;
27983;SDS011;15317;50.360;8.726;2024-03-23T17:12:40;2.10;;;1.30;;
27983;SDS011;15317;50.360;8.726;2024-03-23T17:17:44;2.13;;;1.23;;
27983;SDS011;15317;50.360;8.726;2024-03-23T17:22:52;1.40;;;1.10;;
27983;SDS011;15317;50.360;8.726;2024-03-23T17:27:55;1.73;;;0.80;;
27983;SDS011;15317;50.360;8.726;2024-03-23T17:32:58;0.80;;;0.70;;
27983;SDS011;15317;50.360;8.726;2024-03-23T17:38:00;1.53;;;0.90;;
27983;SDS011;15317;50.360;8.726;2024-03-23T17:43:02;1.47;;;1.00;;
27983;SDS011;15317;50.360;8.726;2024-03-23T17:48:07;2.00;;;1.30;;
27983;SDS011;15317;50.360;8.726;2024-03-23T17:53:09;1.97;;;1.10;;
27983;SDS011;15317;50.360;8.726;2024-03-23T17:58:11;2.40;;;1.00;;
27983;SDS011;15317;50.360;8.726;2024-03-23T18:03:15;1.83;;;1.53;;
27983;SDS011;15317;50.360;8.726;2024-03-23T18:08:17;1.40;;;1.10;;
27983;SDS011;15317;50.360;8.726;2024-03-23T18:13:19;2.30;;;1.60;;
27983;SDS011;15317;50.360;8.726;2024-03-23T18:18:22;1.70;;;1.60;;
27983;SDS011;15317;50.360;8.726;2024-03-23T18:23:25;1.60;;;1.50;;
27983;SDS011;15317;50.360;8.726;2024-03-23T18:28:27;1.40;;;0.90;;
27983;SDS011;15317;50.360;8.726;2024-03-23T18:33:33;1.53;;;1.43;;
27983;SDS011;15317;50.360;8.726;2024-03-23T18:38:37;2.60;;;1.80;;
27983;SDS011;15317;50.360;8.726;2024-03-23T18:43:40;3.40;;;2.63;;
27983;SDS011;15317;50.360;8.726;2024-03-23T18:48:43;2.40;;;1.80;;
27983;SDS011;15317;50.360;8.726;2024-03-23T18:53:45;1.63;;;1.40;;
27983;SDS011;15317;50.360;8.726;2024-03-23T18:58:48;2.23;;;1.77;;
27983;SDS011;15317;50.360;8.726;2024-03-23T19:03:51;2.87;;;1.90;;
27983;SDS011;15317;50.360;8.726;2024-03-23T19:08:53;1.73;;;1.63;;
27983;SDS011;15317;50.360;8.726;2024-03-23T19:13:55;2.90;;;2.10;;
27983;SDS011;15317;50.360;8.726;2024-03-23T19:18:59;4.73;;;3.50;;
27983;SDS011;15317;50.360;8.726;2024-03-23T19:24:01;2.70;;;2.30;;
27983;SDS011;15317;50.360;8.726;2024-03-23T19:29:03;4.67;;;2.37;;
27983;SDS011;15317;50.360;8.726;2024-03-23T19:34:07;2.43;;;1.90;;
27983;SDS011;15317;50.360;8.726;2024-03-23T19:39:10;3.57;;;2.30;;
27983;SDS011;15317;50.360;8.726;2024-03-23T19:44:13;2.90;;;1.80;;
27983;SDS011;15317;50.360;8.726;2024-03-23T19:49:16;7.10;;;6.40;;
27983;SDS011;15317;50.360;8.726;2024-03-23T19:54:18;3.27;;;2.37;;
27983;SDS011;15317;50.360;8.726;2024-03-23T19:59:21;3.03;;;1.60;;
27983;SDS011;15317;50.360;8.726;2024-03-23T20:04:25;1.70;;;1.20;;
27983;SDS011;15317;50.360;8.726;2024-03-23T20:09:28;2.03;;;1.40;;
27983;SDS011;15317;50.360;8.726;2024-03-23T20:14:32;1.60;;;1.50;;
27983;SDS011;15317;50.360;8.726;2024-03-23T20:19:35;1.93;;;1.73;;
27983;SDS011;15317;50.360;8.726;2024-03-23T20:24:38;2.07;;;1.80;;
27983;SDS011;15317;50.360;8.726;2024-03-23T20:29:40;2.57;;;1.80;;
27983;SDS011;15317;50.360;8.726;2024-03-23T20:34:44;2.20;;;2.00;;
27983;SDS011;15317;50.360;8.726;2024-03-23T20:39:46;2.93;;;2.00;;
27983;SDS011;15317;50.360;8.726;2024-03-23T20:44:48;1.90;;;1.70;;
27983;SDS011;15317;50.360;8.726;2024-03-23T20:49:53;2.30;;;2.10;;
27983;SDS011;15317;50.360;8.726;2024-03-23T20:54:56;3.07;;;2.10;;
27983;SDS011;15317;50.360;8.726;2024-03-23T20:59:58;3.83;;;2.30;;
27983;SDS011;15317;50.360;8.726;2024-03-23T21:05:02;2.90;;;2.20;;
27983;SDS011;15317;50.360;8.726;2024-03-23T21:10:06;2.80;;;2.30;;
27983;SDS011;15317;50.360;8.726;2024-03-23T21:15:08;3.83;;;2.50;;
27983;SDS011;15317;50.360;8.726;2024-03-23T21:20:12;3.20;;;2.80;;
27983;SDS011;15317;50.360;8.726;2024-03-23T21:25:14;3.20;;;3.00;;
27983;SDS011;15317;50.360;8.726;2024-03-23T21:30:16;3.40;;;2.80;;
27983;SDS011;15317;50.360;8.726;2024-03-23T21:35:20;3.97;;;3.13;;
27983;SDS011;15317;50.360;8.726;2024-03-23T21:40:23;4.33;;;3.50;;
27983;SDS011;15317;50.360;8.726;2024-03-23T21:45:25;3.50;;;3.00;;
27983;SDS011;15317;50.360;8.726;2024-03-23T21:50:28;4.03;;;3.40;;
27983;SDS011;15317;50.360;8.726;2024-03-23T21:55:31;12.40;;;11.20;;
27983;SDS011;15317;50.360;8.726;2024-03-23T22:00:33;10.27;;;8.63;;
27983;SDS011;15317;50.360;8.726;2024-03-23T22:05:36;6.80;;;5.50;;
27983;SDS011;15317;50.360;8.726;2024-03-23T22:10:39;4.77;;;3.27;;
27983;SDS011;15317;50.360;8.726;2024-03-23T22:15:43;4.00;;;2.87;;
27983;SDS011;15317;50.360;8.726;2024-03-23T22:20:48;4.13;;;2.77;;
27983;SDS011;15317;50.360;8.726;2024-03-23T22:25:56;2.90;;;2.40;;
27983;SDS011;15317;50.360;8.726;2024-03-23T22:31:00;3.07;;;2.77;;
27983;SDS011;15317;50.360;8.726;2024-03-23T22:36:05;3.63;;;3.03;;
27983;SDS011;15317;50.360;8.726;2024-03-23T22:41:08;4.03;;;3.60;;
27983;SDS011;15317;50.360;8.726;2024-03-23T22:46:11;3.87;;;3.43;;
27983;SDS011;15317;50.360;8.726;2024-03-23T22:51:14;5.53;;;4.07;;
27983;SDS011;15317;50.360;8.726;2024-03-23T22:56:16;5.17;;;4.67;;
27983;SDS011;15317;50.360;8.726;2024-03-23T23:01:19;5.33;;;4.63;;
27983;SDS011;15317;50.360;8.726;2024-03-23T23:06:23;5.27;;;4.77;;
27983;SDS011;15317;50.360;8.726;2024-03-23T23:11:25;5.17;;;4.67;;
27983;SDS011;15317;50.360;8.726;2024-03-23T23:16:28;5.47;;;4.97;;
27983;SDS011;15317;50.360;8.726;2024-03-23T23:21:32;5.43;;;4.77;;
27983;SDS011;15317;50.360;8.726;2024-03-23T23:26:34;4.93;;;4.53;;
27983;SDS011;15317;50.360;8.726;2024-03-23T23:31:36;5.93;;;4.90;;
27983;SDS011;15317;50.360;8.726;2024-03-23T23:36:40;5.27;;;4.77;;
27983;SDS011;15317;50.360;8.726;2024-03-23T23:41:42;6.83;;;5.10;;
27983;SDS011;15317;50.360;8.726;2024-03-23T23:46:44;6.30;;;5.20;;
27983;SDS011;15317;50.360;8.726;2024-03-23T23:51:48;5.67;;;5.17;;
27983;SDS011;15317;50.360;8.726;2024-03-23T23:56:50;6.20;;;5.50;;
